sensor_id;sensor_type;location;lat;lon;timestamp;pressure;altitude;pressure_sealevel;temperature;humidity
12775;BME280;6451;42.630;23.382;2023-07-13T00:02:22;94658.94;;;25.24;84.84
12775;BME280;6451;42.630;23.382;2023-07-13T00:04:49;94655.44;;;25.36;82.36
12775;BME280;6451;42.630;23.382;2023-07-13T00:07:19;94650.75;;;25.33;80.79
12775;BME280;6451;42.630;23.382;2023-07-13T00:09:51;94660.81;;;25.43;80.50
12775;BME280;6451;42.630;23.382;2023-07-13T00:12:24;94613.84;;;25.00;79.63
12775;BME280;6451;42.630;23.382;2023-07-13T00:14:51;94640.25;;;25.25;82.37
12775;BME280;6451;42.630;23.382;2023-07-13T00:17:20;94655.59;;;25.13;81.80
12775;BME280;6451;42.630;23.382;2023-07-13T00:19:47;94642.66;;;25.06;85.07
12775;BME280;6451;42.630;23.382;2023-07-13T00:22:14;94651.06;;;25.03;85.56
12775;BME280;6451;42.630;23.382;2023-07-13T00:24:55;94662.56;;;24.85;89.14
12775;BME280;6451;42.630;23.382;2023-07-13T00:27:25;94632.13;;;24.22;93.94
12775;BME280;6451;42.630;23.382;2023-07-13T00:29:52;94647.22;;;24.01;98.72
12775;BME280;6451;42.630;23.382;2023-07-13T00:32:21;94649.41;;;24.33;98.46
12775;BME280;6451;42.630;23.382;2023-07-13T00:34:48;94643.31;;;24.18;100.00
12775;BME280;6451;42.630;23.382;2023-07-13T00:37:14;94641.81;;;24.13;100.00
12775;BME280;6451;42.630;23.382;2023-07-13T00:39:41;94618.56;;;23.88;100.00
12775;BME280;6451;42.630;23.382;2023-07-13T00:42:08;94643.47;;;24.11;100.00
12775;BME280;6451;42.630;23.382;2023-07-13T00:44:36;94639.75;;;23.98;100.00
12775;BME280;6451;42.630;23.382;2023-07-13T00:47:05;94617.50;;;23.58;100.00
12775;BME280;6451;42.630;23.382;2023-07-13T00:49:35;94635.25;;;23.84;100.00
12775;BME280;6451;42.630;23.382;2023-07-13T00:52:05;94641.16;;;23.86;100.00
12775;BME280;6451;42.630;23.382;2023-07-13T00:54:36;94623.97;;;23.95;100.00
12775;BME280;6451;42.630;23.382;2023-07-13T00:57:06;94630.22;;;23.99;100.00
12775;BME280;6451;42.630;23.382;2023-07-13T00:59:34;94627.09;;;23.97;100.00
12775;BME280;6451;42.630;23.382;2023-07-13T01:02:02;94619.91;;;23.56;100.00
12775;BME280;6451;42.630;23.382;2023-07-13T01:04:29;94605.97;;;23.63;100.00
12775;BME280;6451;42.630;23.382;2023-07-13T01:06:58;94628.47;;;23.65;100.00
12775;BME280;6451;42.630;23.382;2023-07-13T01:09:26;94628.34;;;23.72;100.00
12775;BME280;6451;42.630;23.382;2023-07-13T01:11:53;94620.09;;;23.69;100.00
12775;BME280;6451;42.630;23.382;2023-07-13T01:14:20;94625.44;;;23.79;100.00
12775;BME280;6451;42.630;23.382;2023-07-13T01:16:48;94626.53;;;23.85;100.00
12775;BME280;6451;42.630;23.382;2023-07-13T01:19:25;94628.09;;;23.87;100.00
12775;BME280;6451;42.630;23.382;2023-07-13T01:22:03;94630.22;;;23.79;100.00
12775;BME280;6451;42.630;23.382;2023-07-13T01:24:35;94627.75;;;23.61;100.00
12775;BME280;6451;42.630;23.382;2023-07-13T01:27:03;94603.28;;;23.56;100.00
12775;BME280;6451;42.630;23.382;2023-07-13T01:29:32;94607.50;;;23.41;100.00
12775;BME280;6451;42.630;23.382;2023-07-13T01:31:59;94575.00;;;22.98;100.00
12775;BME280;6451;42.630;23.382;2023-07-13T01:34:26;94620.94;;;23.42;100.00
12775;BME280;6451;42.630;23.382;2023-07-13T01:36:54;94635.69;;;23.36;100.00
12775;BME280;6451;42.630;23.382;2023-07-13T01:39:23;94616.94;;;23.20;100.00
12775;BME280;6451;42.630;23.382;2023-07-13T01:41:50;94613.09;;;23.14;100.00
12775;BME280;6451;42.630;23.382;2023-07-13T01:44:17;94589.03;;;23.11;100.00
12775;BME280;6451;42.630;23.382;2023-07-13T01:46:45;94635.50;;;23.46;100.00
12775;BME280;6451;42.630;23.382;2023-07-13T01:49:11;94614.97;;;23.20;100.00
12775;BME280;6451;42.630;23.382;2023-07-13T01:51:38;94556.16;;;22.62;100.00
12775;BME280;6451;42.630;23.382;2023-07-13T01:54:05;94587.47;;;22.83;100.00
12775;BME280;6451;42.630;23.382;2023-07-13T01:56:33;94622.56;;;23.16;100.00
12775;BME280;6451;42.630;23.382;2023-07-13T01:59:00;94618.50;;;22.97;100.00
12775;BME280;6451;42.630;23.382;2023-07-13T02:01:27;94591.53;;;22.74;100.00
12775;BME280;6451;42.630;23.382;2023-07-13T02:03:54;94617.13;;;22.82;100.00
12775;BME280;6451;42.630;23.382;2023-07-13T02:06:21;94620.25;;;22.84;100.00
12775;BME280;6451;42.630;23.382;2023-07-13T02:08:47;94625.34;;;22.89;100.00
12775;BME280;6451;42.630;23.382;2023-07-13T02:11:14;94622.16;;;22.60;100.00
12775;BME280;6451;42.630;23.382;2023-07-13T02:13:43;94582.91;;;22.42;100.00
12775;BME280;6451;42.630;23.382;2023-07-13T02:16:10;94617.91;;;22.56;100.00
12775;BME280;6451;42.630;23.382;2023-07-13T02:18:36;94633.19;;;22.94;100.00
12775;BME280;6451;42.630;23.382;2023-07-13T02:21:04;94602.03;;;22.60;100.00
12775;BME280;6451;42.630;23.382;2023-07-13T02:23:30;94623.78;;;22.58;100.00
12775;BME280;6451;42.630;23.382;2023-07-13T02:25:59;94636.38;;;22.93;100.00
12775;BME280;6451;42.630;23.382;2023-07-13T02:28:25;94631.72;;;22.83;100.00
12775;BME280;6451;42.630;23.382;2023-07-13T02:30:54;94622.03;;;22.98;100.00
12775;BME280;6451;42.630;23.382;2023-07-13T02:33:21;94643.75;;;22.99;100.00
12775;BME280;6451;42.630;23.382;2023-07-13T02:35:48;94645.91;;;22.85;100.00
12775;BME280;6451;42.630;23.382;2023-07-13T02:38:14;94649.38;;;22.65;100.00
12775;BME280;6451;42.630;23.382;2023-07-13T02:40:41;94589.50;;;22.52;100.00
12775;BME280;6451;42.630;23.382;2023-07-13T02:43:08;94625.41;;;22.86;100.00
12775;BME280;6451;42.630;23.382;2023-07-13T02:45:35;94626.97;;;22.87;100.00
12775;BME280;6451;42.630;23.382;2023-07-13T02:48:04;94634.88;;;23.12;100.00
12775;BME280;6451;42.630;23.382;2023-07-13T02:50:30;94626.19;;;22.83;100.00
12775;BME280;6451;42.630;23.382;2023-07-13T02:52:57;94634.31;;;22.97;100.00
12775;BME280;6451;42.630;23.382;2023-07-13T02:55:24;94638.78;;;23.14;100.00
12775;BME280;6451;42.630;23.382;2023-07-13T02:57:51;94641.47;;;22.94;100.00
12775;BME280;6451;42.630;23.382;2023-07-13T03:00:20;94635.69;;;22.85;100.00
12775;BME280;6451;42.630;23.382;2023-07-13T03:02:46;94628.53;;;22.88;100.00
12775;BME280;6451;42.630;23.382;2023-07-13T03:05:16;94555.72;;;22.37;100.00
12775;BME280;6451;42.630;23.382;2023-07-13T03:07:43;94616.25;;;22.89;100.00
12775;BME280;6451;42.630;23.382;2023-07-13T03:10:10;94648.19;;;23.20;100.00
12775;BME280;6451;42.630;23.382;2023-07-13T03:12:37;94635.09;;;22.97;100.00
12775;BME280;6451;42.630;23.382;2023-07-13T03:15:05;94645.22;;;23.08;100.00
12775;BME280;6451;42.630;23.382;2023-07-13T03:17:32;94642.97;;;23.26;100.00
12775;BME280;6451;42.630;23.382;2023-07-13T03:19:59;94632.78;;;22.92;100.00
12775;BME280;6451;42.630;23.382;2023-07-13T03:22:27;94656.81;;;22.99;100.00
12775;BME280;6451;42.630;23.382;2023-07-13T03:24:55;94640.91;;;22.76;100.00
12775;BME280;6451;42.630;23.382;2023-07-13T03:27:22;94650.75;;;23.08;100.00
12775;BME280;6451;42.630;23.382;2023-07-13T03:29:48;94544.16;;;22.45;100.00
12775;BME280;6451;42.630;23.382;2023-07-13T03:32:15;94649.09;;;23.14;100.00
12775;BME280;6451;42.630;23.382;2023-07-13T03:34:42;94630.66;;;23.03;100.00
12775;BME280;6451;42.630;23.382;2023-07-13T03:37:10;94653.94;;;23.33;100.00
12775;BME280;6451;42.630;23.382;2023-07-13T03:39:38;94649.78;;;22.94;100.00
12775;BME280;6451;42.630;23.382;2023-07-13T03:42:06;94630.41;;;22.94;100.00
12775;BME280;6451;42.630;23.382;2023-07-13T03:44:33;94655.41;;;23.14;100.00
12775;BME280;6451;42.630;23.382;2023-07-13T03:47:00;94653.91;;;23.10;100.00
12775;BME280;6451;42.630;23.382;2023-07-13T03:49:27;94658.06;;;23.45;100.00
12775;BME280;6451;42.630;23.382;2023-07-13T03:51:54;94644.06;;;23.05;100.00
12775;BME280;6451;42.630;23.382;2023-07-13T03:54:20;94653.44;;;23.38;100.00
12775;BME280;6451;42.630;23.382;2023-07-13T03:56:49;94642.00;;;23.36;100.00
12775;BME280;6451;42.630;23.382;2023-07-13T03:59:16;94649.91;;;23.61;100.00
12775;BME280;6451;42.630;23.382;2023-07-13T04:01:43;94581.84;;;23.37;100.00
12775;BME280;6451;42.630;23.382;2023-07-13T04:04:10;94616.53;;;23.68;100.00
12775;BME280;6451;42.630;23.382;2023-07-13T04:06:37;94601.19;;;23.64;100.00
12775;BME280;6451;42.630;23.382;2023-07-13T04:09:04;94660.56;;;24.06;100.00
12775;BME280;6451;42.630;23.382;2023-07-13T04:11:32;94659.09;;;24.01;100.00
12775;BME280;6451;42.630;23.382;2023-07-13T04:14:04;94632.28;;;23.95;100.00
12775;BME280;6451;42.630;23.382;2023-07-13T04:16:32;94638.59;;;24.15;100.00
12775;BME280;6451;42.630;23.382;2023-07-13T04:18:59;94643.97;;;24.26;100.00
12775;BME280;6451;42.630;23.382;2023-07-13T04:21:26;94625.50;;;24.39;100.00
12775;BME280;6451;42.630;23.382;2023-07-13T04:23:53;94649.78;;;24.71;100.00
12775;BME280;6451;42.630;23.382;2023-07-13T04:26:21;94664.09;;;24.70;100.00
12775;BME280;6451;42.630;23.382;2023-07-13T04:28:48;94673.97;;;24.71;100.00
12775;BME280;6451;42.630;23.382;2023-07-13T04:31:17;94673.91;;;24.34;100.00
12775;BME280;6451;42.630;23.382;2023-07-13T04:33:45;94679.81;;;24.56;100.00
12775;BME280;6451;42.630;23.382;2023-07-13T04:36:12;94679.53;;;24.51;100.00
12775;BME280;6451;42.630;23.382;2023-07-13T04:38:39;94664.25;;;24.62;100.00
12775;BME280;6451;42.630;23.382;2023-07-13T04:41:07;94648.97;;;24.54;100.00
12775;BME280;6451;42.630;23.382;2023-07-13T04:43:35;94674.09;;;25.19;100.00
12775;BME280;6451;42.630;23.382;2023-07-13T04:46:05;94663.31;;;25.05;100.00
12775;BME280;6451;42.630;23.382;2023-07-13T04:48:34;94680.69;;;25.09;100.00
12775;BME280;6451;42.630;23.382;2023-07-13T04:51:01;94680.53;;;25.33;100.00
12775;BME280;6451;42.630;23.382;2023-07-13T04:53:29;94688.78;;;25.20;100.00
12775;BME280;6451;42.630;23.382;2023-07-13T04:55:56;94664.03;;;24.89;100.00
12775;BME280;6451;42.630;23.382;2023-07-13T04:58:25;94646.97;;;24.55;100.00
12775;BME280;6451;42.630;23.382;2023-07-13T05:00:52;94693.47;;;25.23;100.00
12775;BME280;6451;42.630;23.382;2023-07-13T05:03:20;94690.94;;;25.45;100.00
12775;BME280;6451;42.630;23.382;2023-07-13T05:05:57;94692.59;;;25.59;100.00
12775;BME280;6451;42.630;23.382;2023-07-13T05:08:24;94698.38;;;25.84;100.00
12775;BME280;6451;42.630;23.382;2023-07-13T05:10:52;94692.09;;;25.47;100.00
12775;BME280;6451;42.630;23.382;2023-07-13T05:13:19;94685.50;;;25.41;100.00
12775;BME280;6451;42.630;23.382;2023-07-13T05:15:47;94697.47;;;25.71;100.00
12775;BME280;6451;42.630;23.382;2023-07-13T05:18:21;94690.25;;;25.57;100.00
12775;BME280;6451;42.630;23.382;2023-07-13T05:21:00;94706.94;;;25.90;100.00
12775;BME280;6451;42.630;23.382;2023-07-13T05:23:28;94706.19;;;25.73;100.00
12775;BME280;6451;42.630;23.382;2023-07-13T05:25:56;94692.81;;;25.84;100.00
12775;BME280;6451;42.630;23.382;2023-07-13T05:28:23;94704.78;;;25.97;100.00
12775;BME280;6451;42.630;23.382;2023-07-13T05:30:50;94681.88;;;25.77;100.00
12775;BME280;6451;42.630;23.382;2023-07-13T05:33:17;94687.22;;;25.68;100.00
12775;BME280;6451;42.630;23.382;2023-07-13T05:35:44;94695.53;;;26.17;100.00
12775;BME280;6451;42.630;23.382;2023-07-13T05:38:12;94712.22;;;26.17;100.00
12775;BME280;6451;42.630;23.382;2023-07-13T05:40:39;94656.97;;;26.02;100.00
12775;BME280;6451;42.630;23.382;2023-07-13T05:43:09;94694.09;;;26.41;100.00
12775;BME280;6451;42.630;23.382;2023-07-13T05:45:36;94710.53;;;26.65;100.00
12775;BME280;6451;42.630;23.382;2023-07-13T05:48:03;94674.78;;;26.63;100.00
12775;BME280;6451;42.630;23.382;2023-07-13T05:50:30;94708.72;;;27.00;100.00
12775;BME280;6451;42.630;23.382;2023-07-13T05:52:57;94705.53;;;27.39;100.00
12775;BME280;6451;42.630;23.382;2023-07-13T05:55:26;94703.66;;;27.24;100.00
12775;BME280;6451;42.630;23.382;2023-07-13T05:57:53;94712.31;;;27.64;100.00
12775;BME280;6451;42.630;23.382;2023-07-13T06:00:20;94711.66;;;27.22;100.00
12775;BME280;6451;42.630;23.382;2023-07-13T06:02:48;94721.28;;;27.72;100.00
12775;BME280;6451;42.630;23.382;2023-07-13T06:05:15;94711.66;;;27.85;100.00
12775;BME280;6451;42.630;23.382;2023-07-13T06:07:42;94693.81;;;27.57;100.00
12775;BME280;6451;42.630;23.382;2023-07-13T06:10:09;94692.91;;;27.86;100.00
12775;BME280;6451;42.630;23.382;2023-07-13T06:12:38;94690.69;;;27.81;100.00
12775;BME280;6451;42.630;23.382;2023-07-13T06:15:06;94693.94;;;27.79;100.00
12775;BME280;6451;42.630;23.382;2023-07-13T06:17:33;94692.50;;;28.09;100.00
12775;BME280;6451;42.630;23.382;2023-07-13T06:20:00;94700.41;;;28.23;100.00
12775;BME280;6451;42.630;23.382;2023-07-13T06:22:27;94647.44;;;27.76;100.00
12775;BME280;6451;42.630;23.382;2023-07-13T06:24:54;94687.41;;;27.95;100.00
12775;BME280;6451;42.630;23.382;2023-07-13T06:27:22;94705.25;;;28.10;100.00
12775;BME280;6451;42.630;23.382;2023-07-13T06:29:51;94711.56;;;28.80;98.55
12775;BME280;6451;42.630;23.382;2023-07-13T06:32:18;94694.63;;;28.52;100.00
12775;BME280;6451;42.630;23.382;2023-07-13T06:34:45;94700.06;;;29.00;94.76
12775;BME280;6451;42.630;23.382;2023-07-13T06:37:12;94703.69;;;28.88;96.52
12775;BME280;6451;42.630;23.382;2023-07-13T06:39:39;94692.81;;;28.90;94.25
12775;BME280;6451;42.630;23.382;2023-07-13T06:42:06;94696.78;;;29.23;90.73
12775;BME280;6451;42.630;23.382;2023-07-13T06:44:33;94703.38;;;29.07;89.92
12775;BME280;6451;42.630;23.382;2023-07-13T06:47:02;94699.31;;;29.30;88.11
12775;BME280;6451;42.630;23.382;2023-07-13T06:49:29;94705.44;;;29.16;88.79
12775;BME280;6451;42.630;23.382;2023-07-13T06:51:56;94686.59;;;29.07;88.56
12775;BME280;6451;42.630;23.382;2023-07-13T06:54:23;94693.47;;;29.47;86.74
12775;BME280;6451;42.630;23.382;2023-07-13T06:56:50;94689.03;;;28.96;88.03
12775;BME280;6451;42.630;23.382;2023-07-13T06:59:17;94694.09;;;29.20;85.71
12775;BME280;6451;42.630;23.382;2023-07-13T07:01:44;94699.06;;;29.47;85.37
12775;BME280;6451;42.630;23.382;2023-07-13T07:04:12;94704.31;;;29.85;82.86
12775;BME280;6451;42.630;23.382;2023-07-13T07:06:40;94702.25;;;29.67;83.15
12775;BME280;6451;42.630;23.382;2023-07-13T07:09:07;94707.41;;;29.38;86.56
12775;BME280;6451;42.630;23.382;2023-07-13T07:11:35;94686.09;;;29.31;83.91
12775;BME280;6451;42.630;23.382;2023-07-13T07:14:02;94705.34;;;29.60;84.96
12775;BME280;6451;42.630;23.382;2023-07-13T07:16:29;94675.59;;;29.13;85.62
12775;BME280;6451;42.630;23.382;2023-07-13T07:18:56;94709.47;;;29.96;83.52
12775;BME280;6451;42.630;23.382;2023-07-13T07:21:24;94705.09;;;29.76;80.60
12775;BME280;6451;42.630;23.382;2023-07-13T07:23:52;94705.84;;;29.68;78.28
12775;BME280;6451;42.630;23.382;2023-07-13T07:26:19;94709.25;;;29.62;78.78
12775;BME280;6451;42.630;23.382;2023-07-13T07:28:46;94683.31;;;29.71;79.94
12775;BME280;6451;42.630;23.382;2023-07-13T07:31:13;94708.50;;;29.80;82.88
12775;BME280;6451;42.630;23.382;2023-07-13T07:33:40;94687.38;;;29.88;78.04
12775;BME280;6451;42.630;23.382;2023-07-13T07:36:07;94693.00;;;29.98;77.27
12775;BME280;6451;42.630;23.382;2023-07-13T07:38:35;94705.09;;;29.76;79.91
12775;BME280;6451;42.630;23.382;2023-07-13T07:41:03;94700.31;;;30.04;78.82
12775;BME280;6451;42.630;23.382;2023-07-13T07:43:30;94689.88;;;29.96;76.78
12775;BME280;6451;42.630;23.382;2023-07-13T07:45:57;94698.28;;;30.05;75.34
12775;BME280;6451;42.630;23.382;2023-07-13T07:48:24;94683.13;;;30.24;75.41
12775;BME280;6451;42.630;23.382;2023-07-13T07:50:51;94651.59;;;29.65;78.60
12775;BME280;6451;42.630;23.382;2023-07-13T07:53:18;94680.63;;;30.17;81.77
12775;BME280;6451;42.630;23.382;2023-07-13T07:55:46;94683.88;;;30.15;82.07
12775;BME280;6451;42.630;23.382;2023-07-13T07:58:14;94666.44;;;30.21;81.42
12775;BME280;6451;42.630;23.382;2023-07-13T08:00:41;94673.75;;;30.36;84.90
12775;BME280;6451;42.630;23.382;2023-07-13T08:03:07;94679.84;;;30.71;84.09
12775;BME280;6451;42.630;23.382;2023-07-13T08:05:35;94665.06;;;30.53;83.13
12775;BME280;6451;42.630;23.382;2023-07-13T08:08:02;94667.38;;;30.82;81.74
12775;BME280;6451;42.630;23.382;2023-07-13T08:10:29;94660.94;;;31.09;81.14
12775;BME280;6451;42.630;23.382;2023-07-13T08:12:58;94653.97;;;30.86;81.95
12775;BME280;6451;42.630;23.382;2023-07-13T08:15:25;94655.25;;;30.85;83.02
12775;BME280;6451;42.630;23.382;2023-07-13T08:17:52;94656.66;;;30.71;82.04
12775;BME280;6451;42.630;23.382;2023-07-13T08:20:18;94641.59;;;31.11;77.98
12775;BME280;6451;42.630;23.382;2023-07-13T08:22:45;94629.22;;;30.93;77.48
12775;BME280;6451;42.630;23.382;2023-07-13T08:25:13;94625.88;;;31.13;78.19
12775;BME280;6451;42.630;23.382;2023-07-13T08:27:39;94640.81;;;31.29;79.74
12775;BME280;6451;42.630;23.382;2023-07-13T08:30:09;94602.19;;;31.14;79.01
12775;BME280;6451;42.630;23.382;2023-07-13T08:32:36;94598.41;;;31.26;80.18
12775;BME280;6451;42.630;23.382;2023-07-13T08:35:04;94630.03;;;31.27;77.50
12775;BME280;6451;42.630;23.382;2023-07-13T08:37:31;94641.66;;;31.77;75.64
12775;BME280;6451;42.630;23.382;2023-07-13T08:39:58;94596.41;;;31.18;74.80
12775;BME280;6451;42.630;23.382;2023-07-13T08:42:33;94637.88;;;31.14;76.15
12775;BME280;6451;42.630;23.382;2023-07-13T08:45:20;94485.13;;;30.67;74.12
12775;BME280;6451;42.630;23.382;2023-07-13T08:47:52;94630.31;;;31.95;73.46
12775;BME280;6451;42.630;23.382;2023-07-13T08:50:23;94619.06;;;31.95;74.12
12775;BME280;6451;42.630;23.382;2023-07-13T08:52:52;94618.47;;;32.15;67.41
12775;BME280;6451;42.630;23.382;2023-07-13T08:55:22;94554.38;;;31.90;65.16
12775;BME280;6451;42.630;23.382;2023-07-13T08:57:55;94626.41;;;32.55;66.98
12775;BME280;6451;42.630;23.382;2023-07-13T09:00:34;94634.88;;;32.85;65.80
12775;BME280;6451;42.630;23.382;2023-07-13T09:03:15;94615.22;;;32.31;68.63
12775;BME280;6451;42.630;23.382;2023-07-13T09:05:49;94633.50;;;32.80;68.06
12775;BME280;6451;42.630;23.382;2023-07-13T09:08:35;94655.47;;;32.52;65.57
12775;BME280;6451;42.630;23.382;2023-07-13T09:11:17;94611.38;;;32.44;64.16
12775;BME280;6451;42.630;23.382;2023-07-13T09:13:54;94616.88;;;31.99;65.86
12775;BME280;6451;42.630;23.382;2023-07-13T09:16:26;94673.44;;;32.70;66.42
12775;BME280;6451;42.630;23.382;2023-07-13T09:18:56;94669.47;;;32.76;64.49
12775;BME280;6451;42.630;23.382;2023-07-13T09:21:29;94675.41;;;32.93;63.17
12775;BME280;6451;42.630;23.382;2023-07-13T09:26:33;94663.06;;;32.61;63.30
12775;BME280;6451;42.630;23.382;2023-07-13T09:29:10;94664.34;;;32.75;62.67
12775;BME280;6451;42.630;23.382;2023-07-13T09:31:44;94649.00;;;32.61;64.80
12775;BME280;6451;42.630;23.382;2023-07-13T09:34:16;94672.06;;;32.80;65.80
12775;BME280;6451;42.630;23.382;2023-07-13T09:36:43;94662.50;;;32.86;65.91
12775;BME280;6451;42.630;23.382;2023-07-13T09:39:14;94666.47;;;33.24;60.88
12775;BME280;6451;42.630;23.382;2023-07-13T09:41:48;94639.88;;;33.55;59.21
12775;BME280;6451;42.630;23.382;2023-07-13T09:44:26;94658.44;;;33.46;60.43
12775;BME280;6451;42.630;23.382;2023-07-13T09:46:59;94646.41;;;33.46;59.72
12775;BME280;6451;42.630;23.382;2023-07-13T09:49:28;94652.69;;;33.56;58.84
12775;BME280;6451;42.630;23.382;2023-07-13T09:52:00;94650.16;;;33.43;59.65
12775;BME280;6451;42.630;23.382;2023-07-13T09:54:32;94626.88;;;33.78;60.03
12775;BME280;6451;42.630;23.382;2023-07-13T09:57:01;94650.69;;;33.77;61.11
12775;BME280;6451;42.630;23.382;2023-07-13T09:59:30;94638.25;;;33.83;59.27
12775;BME280;6451;42.630;23.382;2023-07-13T10:01:59;94631.50;;;34.16;56.50
12775;BME280;6451;42.630;23.382;2023-07-13T10:04:29;94615.63;;;33.78;55.07
12775;BME280;6451;42.630;23.382;2023-07-13T10:07:05;94624.53;;;34.11;56.13
12775;BME280;6451;42.630;23.382;2023-07-13T10:09:32;94633.03;;;33.96;57.88
12775;BME280;6451;42.630;23.382;2023-07-13T10:11:59;94622.50;;;33.91;56.35
12775;BME280;6451;42.630;23.382;2023-07-13T10:14:28;94608.19;;;33.95;56.60
12775;BME280;6451;42.630;23.382;2023-07-13T10:16:59;94594.81;;;34.10;54.82
12775;BME280;6451;42.630;23.382;2023-07-13T10:19:31;94623.25;;;34.33;57.36
12775;BME280;6451;42.630;23.382;2023-07-13T10:22:00;94616.63;;;34.36;58.24
12775;BME280;6451;42.630;23.382;2023-07-13T10:24:32;94600.91;;;34.49;57.03
12775;BME280;6451;42.630;23.382;2023-07-13T10:27:03;94611.72;;;34.51;55.72
12775;BME280;6451;42.630;23.382;2023-07-13T10:29:36;94566.72;;;34.16;55.74
12775;BME280;6451;42.630;23.382;2023-07-13T10:32:09;94601.91;;;34.46;55.04
12775;BME280;6451;42.630;23.382;2023-07-13T10:34:37;94608.28;;;34.67;55.02
12775;BME280;6451;42.630;23.382;2023-07-13T10:37:05;94593.16;;;34.91;54.94
12775;BME280;6451;42.630;23.382;2023-07-13T10:39:35;94570.88;;;34.67;54.20
12775;BME280;6451;42.630;23.382;2023-07-13T10:42:05;94573.72;;;34.72;54.04
12775;BME280;6451;42.630;23.382;2023-07-13T10:44:33;94588.38;;;35.02;53.39
12775;BME280;6451;42.630;23.382;2023-07-13T10:47:03;94597.88;;;35.05;54.46
12775;BME280;6451;42.630;23.382;2023-07-13T10:49:34;94579.53;;;35.52;52.94
12775;BME280;6451;42.630;23.382;2023-07-13T10:52:03;94583.81;;;35.42;53.19
12775;BME280;6451;42.630;23.382;2023-07-13T10:54:31;94568.69;;;35.45;52.57
12775;BME280;6451;42.630;23.382;2023-07-13T10:57:15;94528.91;;;35.06;50.45
12775;BME280;6451;42.630;23.382;2023-07-13T10:59:46;94551.16;;;35.35;49.99
12775;BME280;6451;42.630;23.382;2023-07-13T11:02:23;94522.88;;;35.24;49.87
12775;BME280;6451;42.630;23.382;2023-07-13T11:04:55;94552.44;;;35.77;49.49
12775;BME280;6451;42.630;23.382;2023-07-13T11:07:25;94560.00;;;36.03;49.29
12775;BME280;6451;42.630;23.382;2023-07-13T11:09:53;94545.59;;;35.89;47.63
12775;BME280;6451;42.630;23.382;2023-07-13T11:12:50;94534.22;;;35.78;47.03
12775;BME280;6451;42.630;23.382;2023-07-13T11:15:31;94552.22;;;35.86;45.92
12775;BME280;6451;42.630;23.382;2023-07-13T11:18:02;94529.69;;;35.92;44.31
12775;BME280;6451;42.630;23.382;2023-07-13T11:20:39;94524.63;;;36.13;46.61
12775;BME280;6451;42.630;23.382;2023-07-13T11:23:27;94526.59;;;35.96;47.76
12775;BME280;6451;42.630;23.382;2023-07-13T11:25:56;94536.41;;;36.06;45.63
12775;BME280;6451;42.630;23.382;2023-07-13T11:28:27;94494.38;;;35.65;42.15
12775;BME280;6451;42.630;23.382;2023-07-13T11:31:04;94525.72;;;35.73;42.31
12775;BME280;6451;42.630;23.382;2023-07-13T11:33:52;94528.75;;;36.34;42.10
12775;BME280;6451;42.630;23.382;2023-07-13T11:36:23;94533.53;;;35.95;44.93
12775;BME280;6451;42.630;23.382;2023-07-13T11:38:59;94523.06;;;36.12;44.04
12775;BME280;6451;42.630;23.382;2023-07-13T11:41:31;94516.97;;;36.41;44.40
12775;BME280;6451;42.630;23.382;2023-07-13T11:44:12;94522.16;;;36.43;41.37
12775;BME280;6451;42.630;23.382;2023-07-13T11:46:44;94515.09;;;36.05;41.93
12775;BME280;6451;42.630;23.382;2023-07-13T11:49:15;94508.00;;;36.37;44.09
12775;BME280;6451;42.630;23.382;2023-07-13T11:51:44;94520.19;;;35.95;44.40
12775;BME280;6451;42.630;23.382;2023-07-13T11:54:23;94509.66;;;35.96;44.14
12775;BME280;6451;42.630;23.382;2023-07-13T11:56:52;94502.91;;;35.87;43.81
12775;BME280;6451;42.630;23.382;2023-07-13T11:59:20;94518.97;;;36.13;43.44
12775;BME280;6451;42.630;23.382;2023-07-13T12:01:52;94500.75;;;36.25;40.79
12775;BME280;6451;42.630;23.382;2023-07-13T12:04:23;94508.50;;;36.47;40.10
12775;BME280;6451;42.630;23.382;2023-07-13T12:07:04;94491.75;;;36.32;38.90
12775;BME280;6451;42.630;23.382;2023-07-13T12:09:33;94498.47;;;36.40;38.01
12775;BME280;6451;42.630;23.382;2023-07-13T12:12:02;94485.38;;;36.65;37.27
12775;BME280;6451;42.630;23.382;2023-07-13T12:14:33;94488.47;;;37.12;37.35
12775;BME280;6451;42.630;23.382;2023-07-13T12:17:00;94488.25;;;37.05;39.18
12775;BME280;6451;42.630;23.382;2023-07-13T12:19:28;94493.34;;;37.23;39.68
12775;BME280;6451;42.630;23.382;2023-07-13T12:21:58;94482.25;;;37.42;38.32
12775;BME280;6451;42.630;23.382;2023-07-13T12:24:26;94439.63;;;36.78;38.27
12775;BME280;6451;42.630;23.382;2023-07-13T12:26:54;94474.81;;;37.11;38.50
12775;BME280;6451;42.630;23.382;2023-07-13T12:29:22;94460.72;;;36.77;39.61
12775;BME280;6451;42.630;23.382;2023-07-13T12:31:50;94466.63;;;36.96;39.56
12775;BME280;6451;42.630;23.382;2023-07-13T12:34:19;94440.91;;;36.99;38.35
12775;BME280;6451;42.630;23.382;2023-07-13T12:36:48;94464.94;;;37.62;37.54
12775;BME280;6451;42.630;23.382;2023-07-13T12:39:20;94428.47;;;37.25;38.15
12775;BME280;6451;42.630;23.382;2023-07-13T12:41:48;94346.94;;;37.23;36.92
12775;BME280;6451;42.630;23.382;2023-07-13T12:44:18;94465.16;;;37.81;36.88
12775;BME280;6451;42.630;23.382;2023-07-13T12:46:57;94453.22;;;37.94;35.72
12775;BME280;6451;42.630;23.382;2023-07-13T12:49:27;94441.19;;;37.82;35.95
12775;BME280;6451;42.630;23.382;2023-07-13T12:52:00;94419.59;;;37.68;36.17
12775;BME280;6451;42.630;23.382;2023-07-13T12:54:29;94447.91;;;38.20;36.57
12775;BME280;6451;42.630;23.382;2023-07-13T12:56:59;94444.19;;;37.95;35.88
12775;BME280;6451;42.630;23.382;2023-07-13T12:59:30;94420.16;;;37.61;36.56
12775;BME280;6451;42.630;23.382;2023-07-13T13:02:02;94444.00;;;38.34;35.12
12775;BME280;6451;42.630;23.382;2023-07-13T13:04:30;94444.22;;;38.36;34.79
12775;BME280;6451;42.630;23.382;2023-07-13T13:07:01;94444.06;;;38.89;34.66
12775;BME280;6451;42.630;23.382;2023-07-13T13:09:30;94430.09;;;38.61;34.64